createdAt,value
2018-01-25T00:01:15.186Z,75.80
2018-01-25T00:03:42.155Z,75.40
2018-01-25T00:06:09.145Z,75.20
2018-01-25T00:08:36.111Z,75.70
2018-01-25T00:11:03.186Z,75.40
2018-01-25T00:13:30.246Z,75.50
2018-01-25T00:15:57.227Z,75.80
2018-01-25T00:18:24.210Z,75.40
2018-01-25T00:20:51.225Z,75.60
2018-01-25T00:23:19.134Z,75.40
2018-01-25T00:25:46.170Z,75.80
2018-01-25T00:28:13.226Z,76.10
2018-01-25T00:30:40.207Z,76.10
2018-01-25T00:33:08.094Z,75.90
2018-01-25T00:35:35.108Z,76.30
2018-01-25T00:38:02.854Z,77.20
2018-01-25T00:40:30.682Z,77.20
2018-01-25T00:42:57.739Z,77.20
2018-01-25T00:45:24.805Z,77.40
2018-01-25T00:47:51.795Z,77.20
2018-01-25T00:50:18.766Z,77.20
2018-01-25T00:52:46.517Z,77.10
2018-01-25T00:55:13.555Z,77.10
2018-01-25T00:57:40.531Z,77.50
2018-01-25T01:00:07.495Z,77.90
2018-01-25T01:02:34.522Z,77.60
2018-01-25T01:05:01.498Z,77.30
2018-01-25T01:07:28.542Z,77.70
2018-01-25T01:09:55.603Z,77.80
2018-01-25T01:12:22.579Z,77.70
2018-01-25T01:14:49.627Z,78.10
2018-01-25T01:17:16.598Z,77.60
2018-01-25T01:19:43.571Z,78.40
2018-01-25T01:22:10.614Z,77.80
2018-01-25T01:24:37.663Z,78.10
2018-01-25T01:27:04.726Z,77.40
2018-01-25T01:29:31.695Z,77.80
2018-01-25T01:31:58.666Z,78.10
2018-01-25T01:34:25.641Z,78.30
2018-01-25T01:36:53.378Z,78.70
2018-01-25T01:39:20.350Z,78.50
2018-01-25T01:41:47.391Z,78.70
2018-01-25T01:44:14.451Z,78.50
2018-01-25T01:46:41.514Z,78.60
2018-01-25T01:49:08.571Z,79.00
2018-01-25T01:51:35.538Z,78.90
2018-01-25T01:54:02.599Z,79.00
2018-01-25T01:56:29.583Z,79.20
2018-01-25T01:58:56.602Z,79.50
2018-01-25T02:01:23.578Z,79.60
2018-01-25T02:03:50.627Z,79.80
2018-01-25T02:06:17.603Z,80.10
2018-01-25T02:08:44.575Z,80.20
2018-01-25T02:11:11.939Z,80.50
2018-01-25T02:13:38.962Z,80.60
2018-01-25T02:16:06.022Z,80.80
2018-01-25T02:18:33.086Z,80.80
2018-01-25T02:21:00.150Z,81.00
2018-01-25T02:23:27.206Z,81.00
2018-01-25T02:25:54.178Z,81.10
2018-01-25T02:28:21.227Z,81.30
2018-01-25T02:30:48.290Z,81.50
2018-01-25T02:33:16.271Z,81.80
2018-01-25T02:35:43.243Z,81.80
2018-01-25T02:38:10.216Z,82.60
2018-01-25T02:40:37.182Z,81.90
2018-01-25T02:43:04.159Z,82.00
2018-01-25T02:45:31.982Z,82.30
2018-01-25T02:47:59.038Z,82.30
2018-01-25T02:50:26.107Z,82.40
2018-01-25T02:52:53.089Z,82.60
2018-01-25T02:55:20.115Z,82.80
2018-01-25T02:57:47.184Z,83.00
2018-01-25T03:00:14.239Z,83.10
2018-01-25T03:02:41.254Z,83.40
2018-01-25T03:05:09.070Z,83.80
2018-01-25T03:07:36.050Z,83.70
2018-01-25T03:10:03.104Z,83.80
2018-01-25T03:12:30.107Z,84.00
2018-01-25T03:14:57.931Z,84.40
2018-01-25T03:17:25.017Z,84.40
2018-01-25T03:19:51.987Z,84.60
2018-01-25T03:22:19.011Z,84.80
2018-01-25T03:24:46.070Z,84.90
2018-01-25T03:27:13.038Z,85.10
2018-01-25T03:29:40.014Z,84.90
2018-01-25T03:32:07.042Z,84.90
2018-01-25T03:34:34.023Z,84.60
2018-01-25T03:37:01.147Z,84.40
2018-01-25T03:39:28.873Z,83.60
2018-01-25T03:41:55.895Z,83.60
2018-01-25T03:44:22.963Z,84.00
2018-01-25T03:46:49.931Z,84.10
2018-01-25T03:49:16.974Z,83.90
2018-01-25T03:51:44.045Z,83.80
2018-01-25T03:54:11.019Z,83.80
2018-01-25T03:56:38.059Z,83.40
2018-01-25T03:59:05.051Z,83.20
2018-01-25T04:01:32.074Z,82.50
2018-01-25T04:03:59.135Z,82.60
2018-01-25T04:06:26.198Z,81.70
2018-01-25T04:08:53.175Z,81.90
2018-01-25T04:11:20.211Z,81.40
2018-01-25T04:13:47.275Z,81.20
2018-01-25T04:16:14.334Z,81.30
2018-01-25T04:18:41.390Z,81.60
2018-01-25T04:21:08.459Z,81.40
2018-01-25T04:23:35.510Z,81.80
2018-01-25T04:26:02.603Z,82.20
2018-01-25T04:28:29.626Z,82.30
2018-01-25T04:30:56.607Z,82.30
2018-01-25T04:33:23.654Z,81.90
2018-01-25T04:35:50.631Z,81.20
2018-01-25T04:38:17.675Z,81.20
2018-01-25T04:40:44.731Z,81.60
2018-01-25T04:43:11.707Z,81.70
2018-01-25T04:45:38.751Z,82.40
2018-01-25T04:48:05.720Z,82.40
2018-01-25T04:50:32.703Z,82.60
2018-01-25T04:52:59.719Z,82.50
2018-01-25T04:55:26.703Z,82.10
2018-01-25T04:57:53.742Z,82.30
2018-01-25T05:00:20.715Z,82.70
2018-01-25T05:02:47.922Z,83.00
2018-01-25T05:05:14.919Z,83.00
2018-01-25T05:07:41.983Z,83.20
2018-01-25T05:10:08.951Z,83.50
2018-01-25T05:12:35.927Z,83.60
2018-01-25T05:15:02.931Z,83.90
2018-01-25T05:17:30.811Z,83.80
2018-01-25T05:19:57.775Z,83.90
2018-01-25T05:22:24.750Z,83.50
2018-01-25T05:24:51.723Z,83.80
2018-01-25T05:27:18.702Z,83.90
2018-01-25T05:29:45.726Z,83.70
2018-01-25T05:32:12.706Z,83.50
2018-01-25T05:34:39.674Z,83.80
2018-01-25T05:37:08.163Z,84.20
2018-01-25T05:39:35.131Z,84.10
2018-01-25T05:42:02.107Z,83.80
2018-01-25T05:44:29.846Z,84.00
2018-01-25T05:46:56.819Z,84.60
2018-01-25T05:49:23.790Z,84.00
2018-01-25T05:51:50.763Z,83.80
2018-01-25T05:54:18.586Z,83.70
2018-01-25T05:56:45.647Z,83.60
2018-01-25T05:59:12.706Z,84.10
2018-01-25T06:01:39.678Z,83.50
2018-01-25T06:04:06.722Z,83.30
2018-01-25T06:06:33.778Z,83.60
2018-01-25T06:09:00.851Z,83.40
2018-01-25T06:11:27.818Z,83.40
2018-01-25T06:13:54.795Z,83.50
2018-01-25T06:16:21.769Z,84.00
2018-01-25T06:18:49.502Z,85.20
2018-01-25T06:21:16.555Z,84.50
2018-01-25T06:23:43.535Z,84.20
2018-01-25T06:26:10.498Z,84.10
2018-01-25T06:28:37.474Z,84.20
2018-01-25T06:31:04.471Z,84.20
2018-01-25T06:33:31.451Z,84.40
2018-01-25T06:35:58.502Z,84.50
2018-01-25T06:38:25.567Z,84.40
2018-01-25T06:40:52.538Z,84.30
2018-01-25T06:43:19.511Z,84.70
2018-01-25T06:45:46.546Z,84.70
2018-01-25T06:48:13.514Z,84.40
2018-01-25T06:50:40.568Z,84.30
2018-01-25T06:53:08.466Z,84.00
2018-01-25T06:55:35.446Z,82.30
2018-01-25T06:58:03.275Z,82.10
2018-01-25T07:00:30.363Z,82.00
2018-01-25T07:02:57.335Z,81.90
2018-01-25T07:05:24.358Z,81.80
2018-01-25T07:07:51.330Z,81.20
2018-01-25T07:10:18.370Z,81.50
2018-01-25T07:12:45.347Z,81.40
2018-01-25T07:15:12.338Z,81.10
2018-01-25T07:17:39.348Z,80.80
2018-01-25T07:20:06.406Z,81.10
2018-01-25T07:22:33.387Z,80.80
2018-01-25T07:25:00.422Z,80.90
2018-01-25T07:27:27.394Z,80.70
2018-01-25T07:29:54.374Z,80.90
2018-01-25T07:32:21.407Z,80.90
2018-01-25T07:34:48.378Z,81.00
2018-01-25T07:37:15.358Z,80.80
2018-01-25T07:39:42.382Z,80.80
2018-01-25T07:42:09.438Z,80.90
2018-01-25T07:44:36.407Z,81.00
2018-01-25T07:47:03.458Z,80.90
2018-01-25T07:49:30.619Z,80.70
2018-01-25T07:51:57.602Z,80.70
2018-01-25T07:54:24.622Z,80.70
2018-01-25T07:56:51.594Z,80.70
2018-01-25T07:59:18.578Z,80.90
2018-01-25T08:01:47.074Z,80.70
2018-01-25T08:04:14.106Z,80.70
2018-01-25T08:06:41.166Z,80.70
2018-01-25T08:09:08.235Z,80.70
2018-01-25T08:11:35.286Z,80.90
2018-01-25T08:14:02.274Z,81.20
2018-01-25T08:16:36.510Z,81.60
2018-01-25T08:19:03.534Z,81.40
2018-01-25T08:21:30.799Z,82.10
2018-01-25T08:23:57.787Z,82.30
2018-01-25T08:26:24.818Z,82.30
2018-01-25T08:28:51.799Z,82.30
2018-01-25T08:31:18.775Z,82.60
2018-01-25T08:33:46.527Z,83.30
2018-01-25T08:36:13.499Z,83.00
2018-01-25T08:38:40.483Z,83.00
2018-01-25T08:41:08.313Z,83.70
2018-01-25T08:43:35.291Z,83.70
2018-01-25T08:46:02.303Z,83.90
2018-01-25T08:48:30.022Z,84.50
2018-01-25T08:50:57.059Z,84.40
2018-01-25T08:53:24.044Z,84.70
2018-01-25T08:55:51.074Z,85.20
2018-01-25T08:58:18.144Z,85.30
2018-01-25T09:00:45.198Z,85.70
2018-01-25T09:03:12.171Z,86.00
2018-01-25T09:05:39.149Z,86.30
2018-01-25T09:08:06.130Z,86.60
2018-01-25T09:10:33.951Z,86.10
2018-01-25T09:13:00.928Z,86.10
2018-01-25T09:15:27.916Z,86.10
2018-01-25T09:17:55.654Z,85.90
2018-01-25T09:20:22.702Z,85.90
2018-01-25T09:22:49.695Z,86.00
2018-01-25T09:25:16.722Z,85.90
2018-01-25T09:27:43.778Z,85.90
2018-01-25T09:30:10.843Z,86.00
2018-01-25T09:32:37.833Z,86.30
2018-01-25T09:35:04.807Z,86.60
2018-01-25T09:37:32.551Z,87.30
2018-01-25T09:39:59.531Z,87.20
2018-01-25T09:42:26.517Z,87.60
2018-01-25T09:44:53.490Z,87.90
2018-01-25T09:47:20.470Z,88.00
2018-01-25T09:49:47.442Z,87.90
2018-01-25T09:52:14.435Z,88.10
2018-01-25T09:54:43.870Z,89.00
2018-01-25T09:57:10.855Z,88.30
2018-01-25T09:59:37.891Z,88.40
2018-01-25T10:02:04.819Z,88.70
2018-01-25T10:04:32.658Z,89.00
2018-01-25T10:06:59.719Z,88.90
2018-01-25T10:09:26.691Z,89.40
2018-01-25T10:11:53.675Z,89.10
2018-01-25T10:14:21.416Z,89.80
2018-01-25T10:16:48.399Z,89.30
2018-01-25T10:19:15.379Z,89.60
2018-01-25T10:21:43.123Z,90.00
2018-01-25T10:24:10.095Z,89.90
2018-01-25T10:26:37.078Z,90.00
2018-01-25T10:29:04.828Z,90.10
2018-01-25T10:31:33.387Z,90.00
2018-01-25T10:34:00.367Z,90.00
2018-01-25T10:36:27.342Z,90.10
2018-01-25T10:38:54.364Z,90.20
2018-01-25T10:41:21.339Z,90.70
2018-01-25T10:43:48.323Z,90.20
2018-01-25T10:46:15.338Z,90.30
2018-01-25T10:48:42.315Z,90.40
2018-01-25T10:51:09.363Z,90.50
2018-01-25T10:53:36.419Z,90.50
2018-01-25T10:56:03.479Z,90.50
2018-01-25T10:58:30.534Z,90.50
2018-01-25T11:01:16.247Z,90.50
2018-01-25T11:03:43.227Z,90.40
2018-01-25T11:06:10.259Z,90.40
2018-01-25T11:08:37.319Z,90.50
2018-01-25T11:11:04.298Z,90.60
2018-01-25T11:13:31.271Z,90.40
2018-01-25T11:15:59.018Z,90.60
2018-01-25T11:18:26.071Z,90.40
2018-01-25T11:20:53.130Z,90.40
2018-01-25T11:23:20.102Z,90.50
2018-01-25T11:25:47.082Z,90.70
2018-01-25T11:28:14.067Z,90.80
2018-01-25T11:30:41.815Z,90.60
2018-01-25T11:33:08.838Z,90.60
2018-01-25T11:35:35.904Z,90.80
2018-01-25T11:38:02.878Z,90.90
2018-01-25T11:40:29.858Z,91.10
2018-01-25T11:42:56.875Z,91.10
2018-01-25T11:45:23.851Z,91.20
2018-01-25T11:47:50.831Z,91.20
2018-01-25T11:50:17.807Z,91.10
2018-01-25T11:52:45.627Z,91.00
2018-01-25T11:55:12.602Z,91.00
2018-01-25T11:57:39.583Z,91.00
2018-01-25T12:00:06.558Z,91.10
2018-01-25T12:02:34.302Z,91.10
2018-01-25T12:05:01.340Z,91.10
2018-01-25T12:07:28.395Z,91.10
2018-01-25T12:09:55.441Z,91.10
2018-01-25T12:12:22.414Z,91.10
2018-01-25T12:14:49.390Z,91.10
2018-01-25T12:17:16.435Z,91.00
2018-01-25T12:19:43.415Z,90.90
2018-01-25T12:22:10.410Z,90.90
2018-01-25T12:24:37.527Z,91.00
2018-01-25T12:27:04.532Z,90.80
2018-01-25T12:29:31.735Z,90.80
2018-01-25T12:31:58.822Z,91.00
2018-01-25T12:34:25.811Z,90.90
2018-01-25T12:36:53.555Z,91.00
2018-01-25T12:39:20.586Z,90.90
2018-01-25T12:41:47.655Z,91.00
2018-01-25T12:44:14.639Z,91.00
2018-01-25T12:46:41.611Z,91.10
2018-01-25T12:49:08.590Z,91.20
2018-01-25T12:51:35.594Z,91.60
2018-01-25T12:54:02.646Z,91.20
2018-01-25T12:56:29.619Z,91.20
2018-01-25T12:58:56.603Z,91.30
2018-01-25T13:01:23.925Z,91.30
2018-01-25T13:03:51.646Z,91.20
2018-01-25T13:06:19.386Z,90.80
2018-01-25T13:08:46.370Z,91.00
2018-01-25T13:11:13.347Z,91.20
2018-01-25T13:13:41.125Z,91.10
2018-01-25T13:16:08.071Z,91.10
2018-01-25T13:18:35.914Z,91.10
2018-01-25T13:21:02.915Z,91.10
2018-01-25T13:23:30.655Z,90.80
2018-01-25T13:25:57.639Z,90.80
2018-01-25T13:28:24.618Z,90.70
2018-01-25T13:30:52.368Z,90.70
2018-01-25T13:33:25.214Z,90.60
2018-01-25T13:35:52.191Z,90.80
2018-01-25T13:38:19.258Z,90.90
2018-01-25T13:40:46.234Z,91.00
2018-01-25T13:43:13.212Z,91.00
2018-01-25T13:45:40.227Z,90.90
2018-01-25T13:48:07.229Z,90.60
2018-01-25T13:50:34.253Z,90.80
2018-01-25T13:53:01.286Z,90.70
2018-01-25T13:55:29.022Z,90.60
2018-01-25T13:57:55.995Z,90.60
2018-01-25T14:00:23.819Z,90.60
2018-01-25T14:02:50.791Z,90.60
2018-01-25T14:05:17.775Z,90.70
2018-01-25T14:07:44.746Z,90.90
2018-01-25T14:10:12.487Z,90.80
2018-01-25T14:12:39.467Z,90.70
2018-01-25T14:15:06.490Z,90.70
2018-01-25T14:17:33.463Z,90.80
2018-01-25T14:20:00.443Z,90.70
2018-01-25T14:22:27.422Z,90.80
2018-01-25T14:24:55.171Z,90.90
2018-01-25T14:27:22.195Z,90.90
2018-01-25T14:29:49.168Z,90.70
2018-01-25T14:32:16.219Z,90.60
2018-01-25T14:34:43.195Z,90.80
2018-01-25T14:37:10.174Z,90.70
2018-01-25T14:39:37.191Z,90.50
2018-01-25T14:42:04.250Z,90.70
2018-01-25T14:44:31.230Z,90.70
2018-01-25T14:46:58.211Z,90.80
2018-01-25T14:49:25.227Z,90.90
2018-01-25T14:51:52.211Z,91.00
2018-01-25T14:54:19.242Z,90.90
2018-01-25T14:56:46.306Z,90.70
2018-01-25T14:59:13.367Z,90.80
2018-01-25T15:01:40.359Z,90.90
2018-01-25T15:04:07.382Z,91.00
2018-01-25T15:06:34.478Z,90.90
2018-01-25T15:09:01.463Z,91.00
2018-01-25T15:11:29.207Z,91.20
2018-01-25T15:13:56.234Z,91.20
2018-01-25T15:16:23.207Z,91.20
2018-01-25T15:18:50.258Z,91.20
2018-01-25T15:21:17.318Z,91.20
2018-01-25T15:23:44.311Z,91.20
2018-01-25T15:26:11.275Z,91.20
2018-01-25T15:28:38.279Z,91.20
2018-01-25T15:31:05.251Z,91.60
2018-01-25T15:33:32.238Z,91.40
2018-01-25T15:35:59.277Z,91.30
2018-01-25T15:38:26.258Z,91.30
2018-01-25T15:40:54.102Z,91.20
2018-01-25T15:43:21.079Z,91.20
2018-01-25T15:45:48.054Z,91.10
2018-01-25T15:48:15.791Z,91.10
2018-01-25T15:50:42.771Z,91.10
2018-01-25T15:53:09.750Z,91.20
2018-01-25T15:55:36.730Z,91.20
2018-01-25T15:58:04.555Z,91.10
2018-01-25T16:00:31.810Z,91.10
2018-01-25T16:02:58.875Z,91.10
2018-01-25T16:05:25.858Z,91.20
2018-01-25T16:07:52.828Z,91.70
2018-01-25T16:10:19.807Z,91.70
2018-01-25T16:12:47.538Z,91.80
2018-01-25T16:15:14.514Z,91.80
2018-01-25T16:17:41.546Z,91.80
2018-01-25T16:20:08.530Z,91.80
2018-01-25T16:22:35.503Z,91.80
2018-01-25T16:25:02.503Z,91.90
2018-01-25T16:27:29.765Z,91.90
2018-01-25T16:29:57.055Z,92.00
2018-01-25T16:32:23.997Z,91.90
2018-01-25T16:34:50.966Z,92.00
2018-01-25T16:37:18.166Z,92.00
2018-01-25T16:39:45.904Z,92.00
2018-01-25T16:42:12.883Z,92.00
2018-01-25T16:44:39.847Z,92.00
2018-01-25T16:47:06.839Z,92.00
2018-01-25T16:49:34.575Z,92.10
2018-01-25T16:52:01.770Z,92.00
2018-01-25T16:54:29.598Z,92.00
2018-01-25T16:56:56.591Z,92.00
2018-01-25T16:59:23.563Z,92.00
2018-01-25T17:01:51.335Z,92.10
2018-01-25T17:04:20.058Z,92.00
2018-01-25T17:06:48.737Z,92.00
2018-01-25T17:09:16.460Z,92.00
2018-01-25T17:11:43.555Z,92.00
2018-01-25T17:14:10.544Z,92.10
2018-01-25T17:16:37.560Z,92.10
2018-01-25T17:19:04.523Z,92.10
2018-01-25T17:21:31.535Z,92.10
2018-01-25T17:23:58.547Z,92.10
2018-01-25T17:26:25.523Z,92.20
2018-01-25T17:28:52.504Z,92.10
2018-01-25T17:31:19.470Z,92.00
2018-01-25T17:33:47.220Z,92.40
2018-01-25T17:36:14.191Z,92.10
2018-01-25T17:38:41.171Z,92.00
2018-01-25T17:41:08.910Z,91.90
2018-01-25T17:43:35.954Z,91.90
2018-01-25T17:46:03.014Z,92.00
2018-01-25T17:48:30.076Z,92.00
2018-01-25T17:50:57.114Z,92.00
2018-01-25T17:53:24.866Z,92.00
2018-01-25T17:55:52.642Z,92.10
2018-01-25T17:58:20.391Z,92.10
2018-01-25T18:00:47.483Z,92.00
2018-01-25T18:03:15.215Z,92.10
2018-01-25T18:05:42.263Z,92.10
2018-01-25T18:08:09.245Z,92.10
2018-01-25T18:10:36.422Z,92.20
2018-01-25T18:13:07.441Z,92.10
2018-01-25T18:15:34.403Z,92.10
2018-01-25T18:18:01.382Z,92.10
2018-01-25T18:20:28.418Z,92.10
2018-01-25T18:22:55.387Z,92.20
2018-01-25T18:25:22.366Z,92.10
2018-01-25T18:27:49.395Z,92.10
2018-01-25T18:30:16.459Z,92.10
2018-01-25T18:32:43.527Z,92.20
2018-01-25T18:35:10.575Z,92.20
2018-01-25T18:37:37.548Z,92.20
2018-01-25T18:40:04.594Z,92.20
2018-01-25T18:42:31.563Z,92.20
2018-01-25T18:44:58.611Z,92.20
2018-01-25T18:47:25.583Z,92.10
2018-01-25T18:49:52.562Z,92.20
2018-01-25T18:52:19.539Z,92.10
2018-01-25T18:54:47.362Z,92.20
2018-01-25T18:57:14.337Z,92.20
2018-01-25T18:59:41.303Z,92.10
2018-01-25T19:02:08.338Z,92.10
2018-01-25T19:04:35.303Z,92.10
2018-01-25T19:07:02.299Z,92.10
2018-01-25T19:09:29.315Z,92.10
2018-01-25T19:11:56.373Z,92.20
2018-01-25T19:14:23.347Z,92.20
2018-01-25T19:16:50.327Z,92.10
2018-01-25T19:19:17.355Z,92.20
2018-01-25T19:21:44.335Z,92.20
2018-01-25T19:24:11.302Z,92.20
2018-01-25T19:26:38.291Z,92.10
2018-01-25T19:29:05.261Z,92.20
2018-01-25T19:31:32.226Z,92.20
2018-01-25T19:33:59.207Z,92.10
2018-01-25T19:36:26.267Z,92.20
2018-01-25T19:38:53.314Z,92.20
2018-01-25T19:41:20.287Z,92.20
2018-01-25T19:43:47.267Z,92.10
2018-01-25T19:46:14.234Z,92.10
2018-01-25T19:48:41.271Z,92.20
2018-01-25T19:51:08.222Z,92.20
2018-01-25T19:53:35.203Z,92.20
2018-01-25T19:56:02.937Z,92.10
2018-01-25T19:58:29.915Z,92.10
2018-01-25T20:00:56.971Z,92.10
2018-01-25T20:03:23.950Z,92.10
2018-01-25T20:05:50.927Z,92.20
2018-01-25T20:08:18.754Z,92.20
2018-01-25T20:10:45.735Z,92.20
2018-01-25T20:13:12.715Z,92.20
2018-01-25T20:15:39.689Z,92.20
2018-01-25T20:18:07.432Z,92.20
2018-01-25T20:20:34.403Z,92.20
2018-01-25T20:23:01.427Z,92.10
2018-01-25T20:25:28.400Z,92.10
2018-01-25T20:27:55.383Z,92.10
2018-01-25T20:30:22.411Z,92.10
2018-01-25T20:32:49.379Z,92.00
2018-01-25T20:35:16.518Z,92.00
2018-01-25T20:37:43.587Z,92.00
2018-01-25T20:40:10.566Z,92.00
2018-01-25T20:42:37.534Z,92.10
2018-01-25T20:45:04.510Z,92.00
2018-01-25T20:47:32.242Z,92.00
2018-01-25T20:49:59.227Z,92.00
2018-01-25T20:52:26.195Z,92.00
2018-01-25T20:54:53.207Z,92.00
2018-01-25T20:57:20.270Z,92.10
2018-01-25T20:59:47.330Z,92.00
2018-01-25T21:02:14.322Z,92.00
2018-01-25T21:04:41.363Z,92.10
2018-01-25T21:07:08.406Z,92.10
2018-01-25T21:09:35.462Z,92.10
2018-01-25T21:12:02.510Z,92.10
2018-01-25T21:14:30.229Z,92.00
2018-01-25T21:16:57.207Z,92.00
2018-01-25T21:19:24.179Z,92.00
2018-01-25T21:21:51.999Z,92.00
2018-01-25T21:24:18.971Z,92.00
2018-01-25T21:26:45.942Z,91.90
2018-01-25T21:29:12.915Z,91.90
2018-01-25T21:31:39.886Z,91.80
2018-01-25T21:34:07.626Z,91.80
2018-01-25T21:36:34.666Z,91.80
2018-01-25T21:39:01.735Z,91.80
2018-01-25T21:41:28.786Z,91.80
2018-01-25T21:43:55.846Z,91.80
2018-01-25T21:46:22.818Z,91.70
2018-01-25T21:48:49.791Z,91.70
2018-01-25T21:51:16.758Z,91.70
2018-01-25T21:53:43.779Z,91.70
2018-01-25T21:56:10.750Z,91.70
2018-01-25T21:58:37.723Z,91.70
2018-01-25T22:01:04.694Z,91.70
2018-01-25T22:03:31.730Z,91.80
2018-01-25T22:05:58.799Z,91.80
2018-01-25T22:08:25.815Z,91.80
2018-01-25T22:10:53.662Z,91.90
2018-01-25T22:13:21.407Z,91.90
2018-01-25T22:15:48.378Z,91.90
2018-01-25T22:18:16.118Z,92.00
2018-01-25T22:20:43.107Z,92.00
2018-01-25T22:23:10.082Z,91.90
2018-01-25T22:25:37.055Z,91.90
2018-01-25T22:28:04.879Z,91.80
2018-01-25T22:30:31.970Z,91.80
2018-01-25T22:32:58.994Z,91.80
2018-01-25T22:35:26.063Z,91.80
2018-01-25T22:37:53.035Z,91.80
2018-01-25T22:40:20.015Z,91.80
2018-01-25T22:42:47.034Z,91.90
2018-01-25T22:45:14.011Z,91.90
2018-01-25T22:47:40.982Z,91.90
2018-01-25T22:50:08.011Z,91.90
2018-01-25T22:52:34.979Z,91.90
2018-01-25T22:55:01.962Z,91.90
2018-01-25T22:57:28.947Z,91.90
2018-01-25T22:59:56.709Z,91.90
2018-01-25T23:02:23.692Z,91.90
2018-01-25T23:04:50.678Z,91.90
2018-01-25T23:07:17.650Z,91.90
2018-01-25T23:09:44.623Z,91.90
2018-01-25T23:12:12.370Z,91.90
2018-01-25T23:14:39.426Z,91.90
2018-01-25T23:17:06.407Z,91.90
2018-01-25T23:19:33.454Z,91.90
2018-01-25T23:22:00.515Z,92.00
2018-01-25T23:24:27.481Z,92.00
2018-01-25T23:26:54.535Z,92.00
2018-01-25T23:29:21.582Z,92.00
2018-01-25T23:31:48.563Z,92.00
2018-01-25T23:34:15.539Z,92.00
2018-01-25T23:36:42.566Z,92.00
2018-01-25T23:39:09.626Z,92.00
2018-01-25T23:41:36.610Z,92.00
2018-01-25T23:44:03.659Z,92.00
2018-01-25T23:46:30.694Z,92.00
2018-01-25T23:48:57.666Z,92.00
2018-01-25T23:51:24.718Z,92.00
2018-01-25T23:53:51.783Z,92.00
2018-01-25T23:56:18.763Z,92.00
2018-01-25T23:58:45.731Z,92.00
